Time;durP1;ratioP1;P1;durP2;ratioP2;P2;SDS_P1;SDS_P2;PMS_P1;PMS_P2;Temp;Humidity;BMP_temperature;BMP_pressure;BME280_temperature;BME280_humidity;BME280_pressure;Samples;Min_cycle;Max_cycle;Signal;HPM_P1;HPM_P2
2021/05/12 00:02:20;;;;;;;2.43;2.23;;;12.40;99.90;;;;;;5081619;28;21048;-83
2021/05/12 00:04:47;;;;;;;2.50;2.40;;;12.40;99.90;;;;;;5081894;28;20490;-83
2021/05/12 00:07:14;;;;;;;2.10;2.00;;;12.40;99.90;;;;;;5081416;28;20457;-82
2021/05/12 00:09:40;;;;;;;3.00;2.80;;;12.40;99.90;;;;;;5082393;28;20458;-83
2021/05/12 00:12:07;;;;;;;2.77;2.57;;;12.30;99.90;;;;;;5081903;28;20560;-83
2021/05/12 00:14:36;;;;;;;2.77;2.57;;;12.30;99.90;;;;;;5082493;28;20450;-83
2021/05/12 00:17:02;;;;;;;2.77;2.57;;;12.20;99.90;;;;;;5082211;28;20447;-83
2021/05/12 00:19:32;;;;;;;2.40;2.30;;;12.20;99.90;;;;;;5081959;28;20461;-83
2021/05/12 00:22:12;;;;;;;3.17;2.97;;;12.20;99.90;;;;;;5081459;28;20485;-83
2021/05/12 00:24:40;;;;;;;2.50;2.40;;;12.20;99.90;;;;;;5081995;28;20466;-83
2021/05/12 00:27:07;;;;;;;2.70;2.60;;;12.20;99.90;;;;;;5081931;28;20455;-83
2021/05/12 00:29:33;;;;;;;2.63;2.50;;;12.20;99.90;;;;;;5081361;28;21001;-83
2021/05/12 00:32:02;;;;;;;2.20;2.10;;;12.20;99.90;;;;;;5081907;28;20526;-83
2021/05/12 00:34:28;;;;;;;2.70;2.50;;;12.20;99.90;;;;;;5081333;28;20455;-82
2021/05/12 00:36:54;;;;;;;3.20;3.00;;;12.10;99.90;;;;;;5081471;28;20464;-82
2021/05/12 00:39:21;;;;;;;2.73;2.53;;;12.10;99.90;;;;;;5082853;28;20501;-83
2021/05/12 00:41:48;;;;;;;3.53;3.23;;;12.00;99.90;;;;;;5080898;28;20847;-83
2021/05/12 00:44:19;;;;;;;3.40;3.20;;;12.00;99.90;;;;;;5092291;28;20548;-80
2021/05/12 00:46:47;;;;;;;3.00;2.80;;;12.00;99.90;;;;;;5092668;28;20495;-80
2021/05/12 00:49:13;;;;;;;2.60;2.40;;;11.90;99.90;;;;;;5091099;28;20464;-79
2021/05/12 00:51:40;;;;;;;2.80;2.60;;;11.80;99.90;;;;;;5084996;28;20519;-82
2021/05/12 00:54:07;;;;;;;3.10;2.00;;;11.70;99.90;;;;;;5080794;28;20445;-81
2021/05/12 00:56:35;;;;;;;3.27;2.37;;;11.60;99.90;;;;;;5080874;28;20454;-82
2021/05/12 00:59:02;;;;;;;2.97;2.67;;;11.50;99.90;;;;;;5080762;28;20449;-82
2021/05/12 01:01:28;;;;;;;3.10;2.80;;;11.50;99.90;;;;;;5080584;28;20984;-83
2021/05/12 01:03:54;;;;;;;2.17;2.00;;;11.40;99.90;;;;;;5081143;28;20442;-83
2021/05/12 01:06:23;;;;;;;2.63;2.50;;;11.40;99.90;;;;;;5080464;28;20489;-82
2021/05/12 01:08:49;;;;;;;2.73;2.53;;;11.30;99.90;;;;;;5080267;28;20442;-83
2021/05/12 01:11:16;;;;;;;1.80;1.70;;;11.20;99.90;;;;;;5080139;28;20971;-82
2021/05/12 01:13:43;;;;;;;2.30;2.08;;;11.20;99.90;;;;;;5079557;28;20483;-82
2021/05/12 01:16:10;;;;;;;2.07;1.57;;;11.10;99.90;;;;;;5080808;28;20202;-82
2021/05/12 01:18:37;;;;;;;2.38;2.10;;;11.00;99.90;;;;;;5079548;28;20454;-82
2021/05/12 01:21:06;;;;;;;2.07;1.97;;;11.00;99.90;;;;;;5079829;28;20574;-82
2021/05/12 01:23:34;;;;;;;1.60;1.50;;;10.90;99.90;;;;;;5079786;28;20459;-81
2021/05/12 01:26:04;;;;;;;1.70;1.60;;;10.90;99.90;;;;;;5080332;28;20895;-82
2021/05/12 01:28:35;;;;;;;2.00;1.90;;;10.90;99.90;;;;;;5080222;28;20266;-81
2021/05/12 01:31:04;;;;;;;1.73;1.63;;;10.90;99.90;;;;;;5079743;28;20240;-82
2021/05/12 01:33:31;;;;;;;1.90;1.80;;;10.90;99.90;;;;;;5079813;28;20260;-82
2021/05/12 01:35:58;;;;;;;1.77;1.67;;;10.90;99.90;;;;;;5079748;28;20207;-81
2021/05/12 01:38:26;;;;;;;1.60;1.50;;;10.80;99.90;;;;;;5079769;28;20213;-82
2021/05/12 01:40:57;;;;;;;1.73;1.63;;;10.90;99.90;;;;;;5079512;28;20990;-82
2021/05/12 01:43:23;;;;;;;1.80;1.70;;;10.90;99.90;;;;;;5080099;28;20452;-81
2021/05/12 01:45:50;;;;;;;2.23;2.13;;;10.90;99.90;;;;;;5080037;28;20517;-80
2021/05/12 01:48:17;;;;;;;1.90;1.80;;;10.90;99.90;;;;;;5080348;28;20457;-79
2021/05/12 01:50:43;;;;;;;2.50;1.70;;;10.90;99.90;;;;;;5080130;28;20458;-79
2021/05/12 01:53:11;;;;;;;2.60;2.37;;;10.90;99.90;;;;;;5079365;28;20452;-81
2021/05/12 01:55:38;;;;;;;3.40;2.17;;;10.90;99.90;;;;;;5079505;28;20503;-82
2021/05/12 01:58:05;;;;;;;2.08;1.98;;;10.90;99.90;;;;;;5078988;28;20341;-82
2021/05/12 02:00:33;;;;;;;2.35;2.15;;;10.90;99.90;;;;;;5078774;28;20206;-82
2021/05/12 02:03:00;;;;;;;3.53;3.17;;;10.90;99.90;;;;;;5078890;28;20289;-81
2021/05/12 02:05:27;;;;;;;2.77;2.47;;;10.80;99.90;;;;;;5078332;28;20231;-82
2021/05/12 02:07:56;;;;;;;4.40;2.93;;;10.80;99.90;;;;;;5079345;28;20795;-81
2021/05/12 02:10:23;;;;;;;3.07;2.80;;;10.80;99.90;;;;;;5078360;28;20858;-82
2021/05/12 02:12:51;;;;;;;2.72;2.53;;;10.80;99.90;;;;;;5079031;28;20505;-79
2021/05/12 02:15:19;;;;;;;3.10;2.80;;;10.70;99.90;;;;;;5080331;28;20206;-81
2021/05/12 02:17:46;;;;;;;2.67;2.43;;;10.70;99.90;;;;;;5078041;28;20917;-81
2021/05/12 02:20:15;;;;;;;3.50;3.10;;;10.70;99.90;;;;;;5079349;28;20453;-81
2021/05/12 02:22:41;;;;;;;3.45;3.15;;;10.70;99.90;;;;;;5081629;28;20643;-79
2021/05/12 02:25:09;;;;;;;2.77;2.50;;;10.70;99.90;;;;;;5080104;28;20280;-79
2021/05/12 02:27:35;;;;;;;2.97;2.77;;;10.60;99.90;;;;;;5079851;28;20811;-81
2021/05/12 02:30:03;;;;;;;2.93;2.60;;;10.70;99.90;;;;;;5082620;28;20823;-81
2021/05/12 02:32:30;;;;;;;3.72;3.42;;;10.70;99.90;;;;;;5083698;28;20936;-81
2021/05/12 02:34:57;;;;;;;3.03;2.77;;;10.70;99.90;;;;;;5083924;28;20202;-81
2021/05/12 02:37:24;;;;;;;2.50;2.30;;;10.70;99.90;;;;;;5084797;28;20453;-81
2021/05/12 02:39:51;;;;;;;2.15;2.05;;;10.70;99.90;;;;;;5083953;28;20198;-81
2021/05/12 02:42:18;;;;;;;3.10;2.90;;;10.70;99.90;;;;;;5084042;28;20568;-82
2021/05/12 02:44:44;;;;;;;2.70;2.50;;;10.60;99.90;;;;;;5084470;28;20202;-82
2021/05/12 02:47:11;;;;;;;2.60;2.40;;;10.70;99.90;;;;;;5084307;28;20452;-82
2021/05/12 02:49:38;;;;;;;3.13;2.83;;;10.60;99.90;;;;;;5083366;28;20702;-82
2021/05/12 02:52:06;;;;;;;3.20;2.90;;;10.60;99.90;;;;;;5082838;28;20728;-81
2021/05/12 02:54:32;;;;;;;3.40;3.20;;;10.60;99.90;;;;;;5083941;28;20511;-82
2021/05/12 02:56:59;;;;;;;11.52;3.83;;;10.50;99.90;;;;;;5084831;28;20217;-81
2021/05/12 02:59:25;;;;;;;3.70;3.42;;;10.60;99.90;;;;;;5085230;28;20205;-81
2021/05/12 03:01:51;;;;;;;3.88;3.58;;;10.60;99.90;;;;;;5084398;28;20606;-81
2021/05/12 03:04:18;;;;;;;5.40;3.75;;;10.60;99.90;;;;;;5083945;28;20217;-81
2021/05/12 03:06:45;;;;;;;4.15;3.75;;;10.60;99.90;;;;;;5084812;28;20226;-80
2021/05/12 03:09:11;;;;;;;3.87;3.57;;;10.60;99.90;;;;;;5085425;28;20218;-80
2021/05/12 03:11:37;;;;;;;5.00;3.67;;;10.60;99.90;;;;;;5084696;28;21032;-80
2021/05/12 03:14:06;;;;;;;4.63;3.92;;;10.60;99.90;;;;;;5084840;28;20206;-80
2021/05/12 03:16:33;;;;;;;5.10;4.30;;;10.50;99.90;;;;;;5085545;28;20207;-80
2021/05/12 03:18:59;;;;;;;4.57;4.17;;;10.60;99.90;;;;;;5084885;28;20213;-80
2021/05/12 03:21:27;;;;;;;8.17;4.00;;;10.60;99.90;;;;;;5084629;28;20488;-81
2021/05/12 03:23:53;;;;;;;4.60;3.90;;;10.60;99.90;;;;;;5084924;28;20823;-81
2021/05/12 03:26:20;;;;;;;5.03;4.63;;;10.60;99.90;;;;;;5085034;28;20488;-81
2021/05/12 03:28:47;;;;;;;5.33;4.93;;;10.60;99.90;;;;;;5085150;28;20453;-81
2021/05/12 03:31:14;;;;;;;5.43;4.93;;;10.60;99.90;;;;;;5084818;28;20472;-80
2021/05/12 03:33:41;;;;;;;6.72;5.88;;;10.70;99.90;;;;;;5084648;28;20453;-80
2021/05/12 03:36:08;;;;;;;6.73;5.57;;;10.60;99.90;;;;;;5085493;28;20206;-80
2021/05/12 03:38:35;;;;;;;11.43;6.20;;;10.70;99.90;;;;;;5085264;28;20460;-80
2021/05/12 03:41:02;;;;;;;7.90;7.10;;;10.70;99.90;;;;;;5082929;28;20226;-81
2021/05/12 03:43:29;;;;;;;8.33;7.63;;;10.70;99.90;;;;;;5081974;28;20463;-80
2021/05/12 03:45:55;;;;;;;8.17;7.20;;;10.70;99.90;;;;;;5081584;28;20980;-80
2021/05/12 03:48:21;;;;;;;9.90;7.10;;;10.70;99.90;;;;;;5082157;28;20445;-80
2021/05/12 03:50:47;;;;;;;7.82;6.38;;;10.70;99.90;;;;;;5081957;28;20496;-80
2021/05/12 03:53:14;;;;;;;5.90;5.30;;;10.70;99.90;;;;;;5082126;28;20702;-80
2021/05/12 03:55:41;;;;;;;7.15;6.35;;;10.70;99.90;;;;;;5082445;28;20207;-79
2021/05/12 03:58:08;;;;;;;7.40;6.70;;;10.70;99.90;;;;;;5083774;28;20207;-80
2021/05/12 04:00:35;;;;;;;8.10;6.80;;;10.70;99.90;;;;;;5082464;28;20509;-80
2021/05/12 04:03:01;;;;;;;7.63;6.80;;;10.70;99.90;;;;;;5081461;28;20451;-80
2021/05/12 04:05:28;;;;;;;9.03;7.33;;;10.80;99.90;;;;;;5082288;28;20233;-80
2021/05/12 04:07:54;;;;;;;7.87;7.10;;;10.80;99.90;;;;;;5082068;28;20445;-80
2021/05/12 04:10:21;;;;;;;14.48;7.70;;;10.90;99.90;;;;;;5081722;28;20453;-80
2021/05/12 04:12:49;;;;;;;7.63;6.63;;;10.80;99.90;;;;;;5081708;28;20735;-80
2021/05/12 04:15:16;;;;;;;11.63;8.02;;;10.70;99.90;;;;;;5082753;28;20720;-79
2021/05/12 04:17:42;;;;;;;11.63;8.07;;;10.70;99.90;;;;;;5082090;28;20260;-80
2021/05/12 04:20:12;;;;;;;8.60;7.60;;;10.70;99.90;;;;;;5082258;28;20207;-80
2021/05/12 04:22:39;;;;;;;9.48;6.78;;;10.80;99.90;;;;;;5081468;28;20269;-79
2021/05/12 04:25:06;;;;;;;8.23;7.43;;;10.90;99.90;;;;;;5081522;28;20203;-79
2021/05/12 04:27:32;;;;;;;7.73;7.13;;;10.90;99.90;;;;;;5082057;28;20217;-80
2021/05/12 04:30:00;;;;;;;13.27;9.80;;;10.80;99.90;;;;;;5081496;28;20446;-80
2021/05/12 04:32:26;;;;;;;9.43;8.53;;;10.80;99.90;;;;;;5081784;28;20547;-79
2021/05/12 04:34:52;;;;;;;8.33;7.40;;;10.80;99.90;;;;;;5081810;28;20453;-80
2021/05/12 04:37:18;;;;;;;7.50;6.80;;;10.80;99.90;;;;;;5081769;28;20452;-80
2021/05/12 04:39:45;;;;;;;7.33;6.63;;;10.80;99.90;;;;;;5082165;28;20478;-79
2021/05/12 04:42:11;;;;;;;8.47;7.60;;;10.90;99.90;;;;;;5081257;28;21017;-79
2021/05/12 04:44:37;;;;;;;7.17;6.47;;;11.00;99.90;;;;;;5082121;28;20453;-79
2021/05/12 04:47:04;;;;;;;8.70;7.37;;;10.90;99.90;;;;;;5081482;28;20490;-80
2021/05/12 04:49:31;;;;;;;8.33;7.57;;;10.90;99.90;;;;;;5081580;28;20449;-80
2021/05/12 04:51:57;;;;;;;9.38;8.38;;;10.80;99.90;;;;;;5080240;28;20526;-79
2021/05/12 04:54:23;;;;;;;7.73;7.13;;;10.80;99.90;;;;;;5080638;28;20256;-80
2021/05/12 04:56:49;;;;;;;9.87;7.60;;;10.80;99.90;;;;;;5080864;28;20455;-79
2021/05/12 04:59:16;;;;;;;10.55;7.85;;;10.80;99.90;;;;;;5081440;28;20452;-79
2021/05/12 05:01:42;;;;;;;8.10;7.40;;;10.90;99.90;;;;;;5080805;28;20236;-80
2021/05/12 05:04:12;;;;;;;8.80;7.90;;;10.80;99.90;;;;;;5077684;28;20213;-80
2021/05/12 05:06:38;;;;;;;7.67;6.93;;;10.80;99.90;;;;;;5077257;28;20488;-80
2021/05/12 05:09:06;;;;;;;10.17;8.33;;;10.70;99.90;;;;;;5077402;28;20452;-80
2021/05/12 05:11:33;;;;;;;8.03;7.23;;;10.80;99.90;;;;;;5077318;28;20521;-80
2021/05/12 05:13:59;;;;;;;6.65;6.03;;;10.80;99.90;;;;;;5077586;28;20460;-80
2021/05/12 05:16:25;;;;;;;8.07;7.10;;;10.90;99.90;;;;;;5077544;28;20201;-80
2021/05/12 05:18:52;;;;;;;9.13;6.37;;;10.90;99.90;;;;;;5077591;28;20450;-79
2021/05/12 05:21:19;;;;;;;7.20;6.60;;;11.00;99.90;;;;;;5077602;28;20959;-80
2021/05/12 05:23:45;;;;;;;7.77;7.07;;;10.90;99.90;;;;;;5077622;28;20449;-80
2021/05/12 05:26:12;;;;;;;8.33;6.93;;;10.90;99.90;;;;;;5077121;28;20486;-80
2021/05/12 05:28:38;;;;;;;13.17;7.87;;;10.90;99.90;;;;;;5077425;28;20502;-80
2021/05/12 05:31:04;;;;;;;7.30;6.60;;;10.90;99.90;;;;;;5077685;28;20884;-80
2021/05/12 05:33:30;;;;;;;12.60;6.57;;;10.80;99.90;;;;;;5077798;28;20944;-80
2021/05/12 05:35:56;;;;;;;6.30;5.80;;;10.90;99.90;;;;;;5076850;28;20472;-80
2021/05/12 05:38:23;;;;;;;7.50;5.80;;;11.00;99.90;;;;;;5077285;28;20444;-80
2021/05/12 05:40:50;;;;;;;6.20;5.60;;;11.00;99.90;;;;;;5077359;28;21139;-80
2021/05/12 05:43:16;;;;;;;6.47;5.87;;;11.00;99.90;;;;;;5076877;28;20453;-79
2021/05/12 05:45:43;;;;;;;8.43;5.80;;;11.00;99.90;;;;;;5077870;28;20477;-80
2021/05/12 05:48:10;;;;;;;8.60;6.40;;;11.00;99.90;;;;;;5077125;28;20454;-80
2021/05/12 05:50:37;;;;;;;5.85;4.80;;;11.00;99.90;;;;;;5076858;28;20510;-80
2021/05/12 05:53:03;;;;;;;8.32;5.20;;;11.00;99.90;;;;;;5076778;28;20211;-80
2021/05/12 05:55:31;;;;;;;7.90;6.07;;;11.10;99.90;;;;;;5077807;28;20203;-80
2021/05/12 05:57:57;;;;;;;5.73;5.17;;;11.10;99.90;;;;;;5077349;28;20461;-80
2021/05/12 06:00:24;;;;;;;5.47;4.97;;;11.20;99.90;;;;;;5078350;28;20852;-79
2021/05/12 06:02:51;;;;;;;4.83;4.43;;;11.10;99.90;;;;;;5077637;28;20909;-82
2021/05/12 06:05:17;;;;;;;6.97;6.37;;;11.20;99.90;;;;;;5076548;28;20457;-82
2021/05/12 06:07:43;;;;;;;6.30;4.60;;;11.20;99.90;;;;;;5077118;28;20448;-82
2021/05/12 06:10:10;;;;;;;6.78;4.65;;;11.20;99.90;;;;;;5076981;28;20535;-82
2021/05/12 06:12:38;;;;;;;6.27;4.47;;;11.20;99.90;;;;;;5080569;28;20244;-83
2021/05/12 06:15:05;;;;;;;5.17;4.70;;;11.10;99.90;;;;;;5088403;28;20447;-82
2021/05/12 06:17:32;;;;;;;4.73;4.33;;;11.10;99.90;;;;;;5085846;28;20471;-82
2021/05/12 06:19:59;;;;;;;4.73;4.40;;;11.00;99.90;;;;;;5084946;28;20468;-82
2021/05/12 06:22:25;;;;;;;4.93;4.03;;;11.00;99.90;;;;;;5085641;28;20461;-82
2021/05/12 06:24:51;;;;;;;5.40;4.90;;;11.00;99.90;;;;;;5085830;28;20830;-82
2021/05/12 06:27:19;;;;;;;5.20;4.20;;;11.10;99.90;;;;;;5084324;28;20484;-82
2021/05/12 06:29:46;;;;;;;8.73;3.93;;;11.20;99.90;;;;;;5086047;28;20423;-82
2021/05/12 06:32:12;;;;;;;4.80;4.23;;;11.20;99.90;;;;;;5084683;28;20458;-82
2021/05/12 06:34:39;;;;;;;6.87;4.73;;;11.10;99.90;;;;;;5083620;28;20442;-82
2021/05/12 06:37:05;;;;;;;5.07;4.57;;;11.20;99.90;;;;;;5078440;28;20451;-82
2021/05/12 06:39:31;;;;;;;6.77;4.00;;;11.10;99.90;;;;;;5075341;28;20455;-81
2021/05/12 06:41:57;;;;;;;5.93;4.40;;;11.00;99.90;;;;;;5075367;28;20477;-79
2021/05/12 06:44:24;;;;;;;4.10;3.70;;;11.00;99.90;;;;;;5075305;28;20458;-80
2021/05/12 06:46:52;;;;;;;5.87;4.57;;;11.00;99.90;;;;;;5074540;28;20493;-80
2021/05/12 06:49:18;;;;;;;6.73;3.60;;;11.00;99.90;;;;;;5075419;28;20928;-80
2021/05/12 06:51:44;;;;;;;4.80;4.17;;;11.10;99.90;;;;;;5075793;28;20466;-80
2021/05/12 06:54:11;;;;;;;6.60;4.43;;;11.10;99.90;;;;;;5075778;28;20464;-82
2021/05/12 06:56:37;;;;;;;4.13;3.72;;;11.00;99.90;;;;;;5074813;28;20453;-80
2021/05/12 06:59:04;;;;;;;3.97;3.67;;;11.00;99.90;;;;;;5074277;28;20694;-81
2021/05/12 07:01:30;;;;;;;7.67;4.47;;;11.00;99.90;;;;;;5074035;28;20473;-80
2021/05/12 07:03:58;;;;;;;8.23;4.60;;;11.00;99.90;;;;;;5076100;28;20458;-79
2021/05/12 07:06:24;;;;;;;5.67;4.33;;;11.00;99.90;;;;;;5080989;28;20890;-78
2021/05/12 07:08:51;;;;;;;6.97;4.40;;;10.90;99.90;;;;;;5081372;28;20955;-78
2021/05/12 07:11:17;;;;;;;6.45;4.30;;;10.90;99.90;;;;;;5080667;28;20523;-78
2021/05/12 07:13:43;;;;;;;4.68;4.28;;;11.00;99.90;;;;;;5076232;28;20206;-80
2021/05/12 07:16:10;;;;;;;5.03;4.63;;;11.00;99.90;;;;;;5077682;28;20207;-80
2021/05/12 07:18:36;;;;;;;4.20;3.83;;;11.10;99.90;;;;;;5080737;28;20453;-79
2021/05/12 07:21:03;;;;;;;5.83;4.23;;;11.10;99.90;;;;;;5080650;28;20554;-80
2021/05/12 07:23:30;;;;;;;4.47;4.03;;;11.00;99.90;;;;;;5077857;28;20825;-80
2021/05/12 07:25:56;;;;;;;3.90;3.60;;;11.10;99.90;;;;;;5078067;28;20519;-80
2021/05/12 07:28:23;;;;;;;5.53;5.00;;;11.10;99.90;;;;;;5078171;28;20450;-80
2021/05/12 07:30:50;;;;;;;4.43;4.03;;;11.10;99.90;;;;;;5077543;28;20473;-80
2021/05/12 07:33:16;;;;;;;4.00;3.60;;;11.10;99.90;;;;;;5077965;28;20869;-80
2021/05/12 07:35:43;;;;;;;4.47;4.07;;;11.00;99.90;;;;;;5078119;28;20456;-80
2021/05/12 07:38:11;;;;;;;6.13;3.90;;;11.10;99.90;;;;;;5078258;28;20452;-80
2021/05/12 07:40:37;;;;;;;4.37;3.97;;;11.00;99.90;;;;;;5077342;28;20545;-79
2021/05/12 07:43:08;;;;;;;5.10;4.30;;;11.00;99.90;;;;;;5077432;28;20449;-80
2021/05/12 07:45:36;;;;;;;5.77;4.50;;;11.00;99.90;;;;;;5077496;28;20470;-80
2021/05/12 07:48:03;;;;;;;4.87;4.37;;;10.90;99.90;;;;;;5077019;28;20571;-80
2021/05/12 07:50:29;;;;;;;4.90;4.50;;;10.80;99.90;;;;;;5077346;28;20457;-80
2021/05/12 07:52:55;;;;;;;4.10;3.80;;;10.70;99.90;;;;;;5077469;28;20226;-80
2021/05/12 07:55:22;;;;;;;5.80;5.22;;;10.80;99.90;;;;;;5077333;28;20456;-80
2021/05/12 07:57:48;;;;;;;5.47;4.90;;;10.60;99.90;;;;;;5077732;28;20210;-80
2021/05/12 08:00:16;;;;;;;7.23;5.67;;;10.60;99.90;;;;;;5077009;28;20821;-80
2021/05/12 08:02:42;;;;;;;4.95;4.55;;;10.70;99.90;;;;;;5077299;28;20480;-80
2021/05/12 08:05:10;;;;;;;5.27;4.87;;;10.70;99.90;;;;;;5077464;28;20268;-80
2021/05/12 08:07:37;;;;;;;5.25;4.82;;;10.70;99.90;;;;;;5076911;28;20482;-80
2021/05/12 08:10:04;;;;;;;7.20;6.63;;;10.80;99.90;;;;;;5076989;28;20207;-80
2021/05/12 08:12:31;;;;;;;9.67;5.47;;;10.80;99.90;;;;;;5076792;28;20231;-80
2021/05/12 08:14:57;;;;;;;5.17;4.77;;;10.90;99.90;;;;;;5077379;28;20466;-80
2021/05/12 08:17:23;;;;;;;9.03;4.97;;;10.90;99.90;;;;;;5077323;28;20447;-80
2021/05/12 08:19:50;;;;;;;4.90;4.50;;;11.00;99.90;;;;;;5076830;28;20454;-80
2021/05/12 08:22:16;;;;;;;4.03;3.63;;;11.10;99.90;;;;;;5076623;28;20908;-80
2021/05/12 08:24:42;;;;;;;4.80;4.33;;;11.20;99.90;;;;;;5076872;28;20458;-80
2021/05/12 08:27:08;;;;;;;5.00;4.17;;;11.20;99.90;;;;;;5075714;28;20512;-80
2021/05/12 08:29:38;;;;;;;4.50;4.10;;;11.30;99.90;;;;;;5076829;28;20458;-80
2021/05/12 08:32:05;;;;;;;5.30;4.87;;;11.20;99.90;;;;;;5076915;28;20512;-80
2021/05/12 08:34:32;;;;;;;5.03;4.10;;;11.20;99.90;;;;;;5076623;28;20795;-80
2021/05/12 08:36:58;;;;;;;4.93;4.40;;;11.10;99.90;;;;;;5076730;28;20453;-80
2021/05/12 08:39:25;;;;;;;4.63;4.25;;;11.10;99.90;;;;;;5076288;28;20455;-80
2021/05/12 08:41:52;;;;;;;4.15;3.75;;;11.00;99.90;;;;;;5076844;28;20264;-80
2021/05/12 08:44:20;;;;;;;3.97;3.67;;;11.00;99.90;;;;;;5077040;28;20304;-80
2021/05/12 08:46:49;;;;;;;8.90;4.33;;;11.10;99.90;;;;;;5076373;28;20485;-80
2021/05/12 08:49:17;;;;;;;3.50;3.20;;;11.10;99.90;;;;;;5077142;28;20453;-80
2021/05/12 08:51:44;;;;;;;4.88;4.47;;;11.10;99.90;;;;;;5077236;28;20472;-80
2021/05/12 08:54:11;;;;;;;3.85;3.50;;;11.10;99.90;;;;;;5077615;28;20211;-80
2021/05/12 08:56:38;;;;;;;10.77;4.13;;;11.20;99.90;;;;;;5077214;28;20226;-80
2021/05/12 08:59:04;;;;;;;4.97;3.80;;;11.20;99.90;;;;;;5076627;28;20514;-80
2021/05/12 09:01:32;;;;;;;3.57;3.37;;;11.20;99.90;;;;;;5076920;28;20499;-80
2021/05/12 09:04:01;;;;;;;5.40;3.90;;;11.30;99.90;;;;;;5076736;28;20472;-80
2021/05/12 09:06:27;;;;;;;5.23;4.83;;;11.30;99.90;;;;;;5076517;28;20490;-80
2021/05/12 09:08:57;;;;;;;3.00;2.80;;;11.40;99.90;;;;;;5076692;28;20454;-80
2021/05/12 09:11:23;;;;;;;3.37;3.07;;;11.50;99.90;;;;;;5076472;28;20481;-80
2021/05/12 09:13:49;;;;;;;8.43;4.47;;;11.40;99.90;;;;;;5075987;28;20427;-80
2021/05/12 09:16:17;;;;;;;4.70;3.97;;;11.30;99.90;;;;;;5076788;28;20494;-80
2021/05/12 09:18:44;;;;;;;4.70;3.60;;;11.30;99.90;;;;;;5076085;28;20455;-80
2021/05/12 09:21:12;;;;;;;3.90;3.60;;;11.40;99.90;;;;;;5075959;28;20475;-80
2021/05/12 09:23:39;;;;;;;4.53;3.20;;;11.40;99.90;;;;;;5075659;28;20504;-80
2021/05/12 09:26:12;;;;;;;3.57;3.27;;;11.40;99.90;;;;;;5076386;28;20489;-80
2021/05/12 09:28:38;;;;;;;6.30;4.17;;;11.40;99.90;;;;;;5077259;28;20472;-80
2021/05/12 09:31:07;;;;;;;6.00;3.80;;;11.40;99.90;;;;;;5076557;28;20480;-80
2021/05/12 09:33:37;;;;;;;3.97;3.57;;;11.50;99.90;;;;;;5076050;28;20449;-80
2021/05/12 09:36:04;;;;;;;4.50;4.10;;;11.50;99.90;;;;;;5075267;28;20977;-80
2021/05/12 09:38:34;;;;;;;6.30;3.90;;;11.50;99.90;;;;;;5075193;28;20445;-80
2021/05/12 09:41:03;;;;;;;3.57;3.37;;;11.50;99.90;;;;;;5075421;28;20478;-80
2021/05/12 09:43:31;;;;;;;5.30;4.90;;;11.50;99.90;;;;;;5075356;28;20515;-80
2021/05/12 09:46:16;;;;;;;4.15;3.80;;;11.60;99.90;;;;;;5075006;28;20567;-81
2021/05/12 09:48:47;;;;;;;4.57;4.00;;;11.60;99.90;;;;;;5074827;28;20304;-81
2021/05/12 09:51:18;;;;;;;4.40;4.00;;;11.60;99.90;;;;;;5075582;28;20471;-81
2021/05/12 09:54:01;;;;;;;4.20;3.50;;;11.60;99.90;;;;;;5075271;28;20820;-81
2021/05/12 09:56:39;;;;;;;3.23;3.03;;;11.60;99.90;;;;;;5075407;28;20519;-79
2021/05/12 09:59:08;;;;;;;4.23;3.60;;;11.60;99.90;;;;;;5075130;28;20820;-81
2021/05/12 10:01:55;;;;;;;7.33;4.03;;;11.70;99.90;;;;;;5075078;28;21014;-81
2021/05/12 10:04:24;;;;;;;4.50;4.03;;;11.70;99.90;;;;;;5070459;28;20459;-81
2021/05/12 10:06:51;;;;;;;3.97;3.57;;;11.80;99.90;;;;;;5074860;28;20521;-81
2021/05/12 10:09:20;;;;;;;3.70;3.40;;;11.90;99.90;;;;;;5074969;28;20544;-81
2021/05/12 10:12:06;;;;;;;5.57;4.50;;;11.90;99.90;;;;;;5074377;28;20486;-81
2021/05/12 10:14:33;;;;;;;3.33;3.03;;;11.80;99.90;;;;;;5075209;28;20927;-81
2021/05/12 10:17:00;;;;;;;5.10;4.60;;;11.80;99.90;;;;;;5074778;28;20940;-80
2021/05/12 10:19:26;;;;;;;4.57;3.97;;;11.80;99.90;;;;;;5074639;28;20453;-81
2021/05/12 10:21:53;;;;;;;3.73;3.30;;;11.90;99.90;;;;;;5074654;28;20998;-81
2021/05/12 10:24:21;;;;;;;6.07;3.23;;;11.90;99.90;;;;;;5074951;28;20443;-81
2021/05/12 10:26:48;;;;;;;3.97;3.47;;;11.90;99.90;;;;;;5075242;28;20493;-81
2021/05/12 10:29:17;;;;;;;4.03;3.60;;;11.90;99.90;;;;;;5076134;28;20450;-81
2021/05/12 10:31:44;;;;;;;4.43;3.27;;;12.00;99.90;;;;;;5077041;28;20478;-80
2021/05/12 10:34:10;;;;;;;4.03;3.67;;;12.00;99.90;;;;;;5077816;28;20465;-80
2021/05/12 10:36:38;;;;;;;4.23;3.93;;;11.90;99.90;;;;;;5077002;28;20455;-80
2021/05/12 10:39:05;;;;;;;3.30;3.00;;;12.00;99.90;;;;;;5076548;28;20461;-80
2021/05/12 10:41:47;;;;;;;3.93;3.10;;;11.90;99.90;;;;;;5076499;28;20485;-80
2021/05/12 10:44:17;;;;;;;4.93;3.50;;;11.90;99.90;;;;;;5075151;28;20553;-80
2021/05/12 10:47:04;;;;;;;3.43;3.17;;;11.90;99.90;;;;;;5074367;28;20519;-81
2021/05/12 10:49:31;;;;;;;3.70;3.40;;;12.00;99.90;;;;;;5075364;28;20476;-80
2021/05/12 10:52:04;;;;;;;3.80;3.50;;;12.00;99.90;;;;;;5078586;28;20975;-81
2021/05/12 10:54:41;;;;;;;3.47;3.17;;;12.00;99.90;;;;;;5079045;28;20857;-80
2021/05/12 10:57:11;;;;;;;3.60;3.23;;;12.10;99.90;;;;;;5078823;28;20453;-81
2021/05/12 10:59:41;;;;;;;3.77;3.30;;;12.10;99.90;;;;;;5078676;28;20457;-81
2021/05/12 11:02:07;;;;;;;5.03;4.30;;;12.10;99.90;;;;;;5078899;28;20471;-80
2021/05/12 11:04:34;;;;;;;6.17;3.97;;;12.20;99.90;;;;;;5079218;28;20465;-80
2021/05/12 11:07:04;;;;;;;4.00;3.60;;;12.30;99.90;;;;;;5079310;28;21048;-80
2021/05/12 11:09:45;;;;;;;3.70;3.33;;;12.30;99.90;;;;;;5079203;28;20980;-80
2021/05/12 11:12:31;;;;;;;4.20;3.20;;;12.40;99.90;;;;;;5078634;28;20498;-80
2021/05/12 11:15:03;;;;;;;3.83;3.50;;;12.40;99.90;;;;;;5079839;28;20568;-80
2021/05/12 11:17:53;;;;;;;3.30;3.10;;;12.30;99.90;;;;;;5079304;28;20454;-79
2021/05/12 11:20:25;;;;;;;6.73;3.50;;;12.40;99.90;;;;;;5079314;28;20473;-79
2021/05/12 11:22:52;;;;;;;3.97;2.77;;;12.30;99.90;;;;;;5078762;28;20548;-79
2021/05/12 11:25:41;;;;;;;4.00;3.70;;;12.30;99.90;;;;;;5079507;28;20509;-79
2021/05/12 11:31:29;;;;;;;3.13;2.90;;;12.40;99.90;;;;;;5078562;28;20520;-79
2021/05/12 11:33:55;;;;;;;4.60;2.63;;;12.40;99.90;;;;;;5078872;28;20457;-79
2021/05/12 11:36:26;;;;;;;6.53;2.97;;;12.60;99.90;;;;;;5078827;28;20446;-79
2021/05/12 11:38:53;;;;;;;2.60;2.43;;;12.60;99.90;;;;;;5078465;28;20455;-79
2021/05/12 11:41:21;;;;;;;3.63;3.30;;;12.70;99.90;;;;;;5078478;28;20473;-79
2021/05/12 11:43:51;;;;;;;3.33;2.70;;;12.70;99.90;;;;;;5078383;28;20553;-79
2021/05/12 11:46:19;;;;;;;8.30;3.57;;;12.90;99.90;;;;;;5078492;28;20492;-79
2021/05/12 11:48:47;;;;;;;5.33;3.30;;;12.90;99.90;;;;;;5078413;28;20502;-79
2021/05/12 11:51:19;;;;;;;4.67;3.17;;;13.00;99.90;;;;;;5078806;28;20477;-79
2021/05/12 11:53:45;;;;;;;5.03;2.93;;;13.10;99.90;;;;;;5078783;28;20450;-79
2021/05/12 11:56:12;;;;;;;2.17;1.97;;;13.20;99.90;;;;;;5078742;28;20484;-79
2021/05/12 11:58:41;;;;;;;3.90;2.90;;;13.30;99.90;;;;;;5078603;28;20524;-79
2021/05/12 12:01:13;;;;;;;6.90;3.20;;;13.30;99.90;;;;;;5078381;28;20894;-79
2021/05/12 12:03:44;;;;;;;4.33;2.57;;;13.40;99.90;;;;;;5077844;28;20454;-79
2021/05/12 12:06:13;;;;;;;5.60;2.70;;;13.50;99.90;;;;;;5078193;28;20525;-79
2021/05/12 12:08:40;;;;;;;3.43;2.80;;;13.60;99.90;;;;;;5078317;28;20451;-79
2021/05/12 12:11:12;;;;;;;4.63;2.90;;;13.80;99.90;;;;;;5077895;28;20797;-79
2021/05/12 12:13:39;;;;;;;4.03;2.63;;;13.90;99.90;;;;;;5077531;28;20652;-79
2021/05/12 12:16:05;;;;;;;3.17;2.90;;;14.10;99.90;;;;;;5078145;28;20525;-79
2021/05/12 12:18:35;;;;;;;4.07;2.80;;;14.20;99.90;;;;;;5077769;28;20450;-79
2021/05/12 12:21:03;;;;;;;4.40;2.90;;;14.10;99.90;;;;;;5077932;28;20471;-79
2021/05/12 12:23:31;;;;;;;2.67;2.57;;;14.10;99.90;;;;;;5077790;28;20493;-79
2021/05/12 12:26:13;;;;;;;5.30;2.60;;;14.30;99.90;;;;;;5078179;28;20481;-79
2021/05/12 12:28:41;;;;;;;2.40;2.20;;;14.40;99.90;;;;;;5078059;28;20549;-79
2021/05/12 12:31:08;;;;;;;2.60;2.47;;;14.40;99.90;;;;;;5077552;28;20512;-79
2021/05/12 12:33:36;;;;;;;3.17;2.97;;;14.50;99.90;;;;;;5078004;28;20453;-79
2021/05/12 12:36:05;;;;;;;3.73;2.70;;;14.40;99.90;;;;;;5082012;28;20442;-79
2021/05/12 12:38:33;;;;;;;3.93;3.43;;;14.30;99.90;;;;;;5083038;28;20963;-78
2021/05/12 12:40:59;;;;;;;2.33;2.23;;;14.30;99.90;;;;;;5083012;28;20560;-78
2021/05/12 12:43:37;;;;;;;2.80;2.60;;;14.40;99.90;;;;;;5080126;28;20443;-79
2021/05/12 12:46:04;;;;;;;2.33;2.13;;;14.50;99.90;;;;;;5077118;28;20482;-79
2021/05/12 12:48:30;;;;;;;4.27;2.70;;;14.70;99.90;;;;;;5077822;28;20447;-79
2021/05/12 12:50:57;;;;;;;2.30;2.00;;;14.80;99.90;;;;;;5078101;28;20504;-79
2021/05/12 12:53:29;;;;;;;1.80;1.70;;;15.00;99.90;;;;;;5077177;28;20457;-79